sensor_id;sensor_type;location;lat;lon;timestamp;P1;durP1;ratioP1;P2;durP2;ratioP2
7047;SDS011;3565;53.254;10.352;2023-02-12T00:01:48;20.50;;;9.77;;
7047;SDS011;3565;53.254;10.352;2023-02-12T00:04:17;25.77;;;10.40;;
7047;SDS011;3565;53.254;10.352;2023-02-12T00:06:48;23.47;;;8.80;;
7047;SDS011;3565;53.254;10.352;2023-02-12T00:09:17;21.53;;;9.97;;
7047;SDS011;3565;53.254;10.352;2023-02-12T00:11:46;23.10;;;9.63;;
7047;SDS011;3565;53.254;10.352;2023-02-12T00:14:15;24.93;;;9.77;;
7047;SDS011;3565;53.254;10.352;2023-02-12T00:16:45;21.13;;;8.93;;
7047;SDS011;3565;53.254;10.352;2023-02-12T00:19:14;19.47;;;8.07;;
7047;SDS011;3565;53.254;10.352;2023-02-12T00:21:44;22.23;;;9.13;;
7047;SDS011;3565;53.254;10.352;2023-02-12T00:24:13;16.50;;;8.00;;
7047;SDS011;3565;53.254;10.352;2023-02-12T00:26:43;22.77;;;8.10;;
7047;SDS011;3565;53.254;10.352;2023-02-12T00:29:21;16.73;;;8.80;;
7047;SDS011;3565;53.254;10.352;2023-02-12T00:31:51;19.13;;;7.93;;
7047;SDS011;3565;53.254;10.352;2023-02-12T00:34:20;16.30;;;7.80;;
7047;SDS011;3565;53.254;10.352;2023-02-12T00:36:49;16.80;;;8.23;;
7047;SDS011;3565;53.254;10.352;2023-02-12T00:39:19;15.27;;;7.60;;
7047;SDS011;3565;53.254;10.352;2023-02-12T00:41:48;17.03;;;7.30;;
7047;SDS011;3565;53.254;10.352;2023-02-12T00:44:19;14.43;;;7.10;;
7047;SDS011;3565;53.254;10.352;2023-02-12T00:46:48;15.17;;;6.77;;
7047;SDS011;3565;53.254;10.352;2023-02-12T00:49:17;11.47;;;6.10;;
7047;SDS011;3565;53.254;10.352;2023-02-12T00:51:47;14.57;;;6.87;;
7047;SDS011;3565;53.254;10.352;2023-02-12T00:54:16;12.63;;;6.13;;
7047;SDS011;3565;53.254;10.352;2023-02-12T00:56:45;14.03;;;6.70;;
7047;SDS011;3565;53.254;10.352;2023-02-12T00:59:16;11.73;;;6.97;;
7047;SDS011;3565;53.254;10.352;2023-02-12T01:01:45;13.93;;;6.50;;
7047;SDS011;3565;53.254;10.352;2023-02-12T01:04:14;13.17;;;7.07;;
7047;SDS011;3565;53.254;10.352;2023-02-12T01:06:44;12.33;;;6.13;;
7047;SDS011;3565;53.254;10.352;2023-02-12T01:09:13;13.97;;;6.67;;
7047;SDS011;3565;53.254;10.352;2023-02-12T01:11:43;14.87;;;6.77;;
7047;SDS011;3565;53.254;10.352;2023-02-12T01:14:12;13.37;;;6.90;;
7047;SDS011;3565;53.254;10.352;2023-02-12T01:16:42;11.40;;;6.57;;
7047;SDS011;3565;53.254;10.352;2023-02-12T01:19:11;14.47;;;6.90;;
7047;SDS011;3565;53.254;10.352;2023-02-12T01:21:41;11.03;;;6.53;;
7047;SDS011;3565;53.254;10.352;2023-02-12T01:24:10;12.07;;;7.10;;
7047;SDS011;3565;53.254;10.352;2023-02-12T01:26:39;15.17;;;7.20;;
7047;SDS011;3565;53.254;10.352;2023-02-12T01:29:10;15.63;;;7.20;;
7047;SDS011;3565;53.254;10.352;2023-02-12T01:31:40;12.40;;;6.63;;
7047;SDS011;3565;53.254;10.352;2023-02-12T01:34:09;13.33;;;7.47;;
7047;SDS011;3565;53.254;10.352;2023-02-12T01:36:39;13.20;;;7.17;;
7047;SDS011;3565;53.254;10.352;2023-02-12T01:39:09;16.60;;;7.50;;
7047;SDS011;3565;53.254;10.352;2023-02-12T01:41:39;13.93;;;7.30;;
7047;SDS011;3565;53.254;10.352;2023-02-12T01:44:12;13.57;;;7.17;;
7047;SDS011;3565;53.254;10.352;2023-02-12T01:46:43;10.63;;;6.70;;
7047;SDS011;3565;53.254;10.352;2023-02-12T01:49:15;10.93;;;6.50;;
7047;SDS011;3565;53.254;10.352;2023-02-12T01:51:46;8.40;;;4.83;;
7047;SDS011;3565;53.254;10.352;2023-02-12T01:54:19;9.13;;;5.40;;
7047;SDS011;3565;53.254;10.352;2023-02-12T01:56:51;7.20;;;4.60;;
7047;SDS011;3565;53.254;10.352;2023-02-12T01:59:21;7.60;;;4.90;;
7047;SDS011;3565;53.254;10.352;2023-02-12T02:01:51;7.80;;;4.80;;
7047;SDS011;3565;53.254;10.352;2023-02-12T02:04:22;9.83;;;5.40;;
7047;SDS011;3565;53.254;10.352;2023-02-12T02:07:02;10.07;;;5.63;;
7047;SDS011;3565;53.254;10.352;2023-02-12T02:09:34;10.47;;;6.17;;
7047;SDS011;3565;53.254;10.352;2023-02-12T02:12:05;10.40;;;5.40;;
7047;SDS011;3565;53.254;10.352;2023-02-12T02:14:54;10.10;;;5.97;;
7047;SDS011;3565;53.254;10.352;2023-02-12T02:17:39;10.17;;;5.87;;
7047;SDS011;3565;53.254;10.352;2023-02-12T02:20:20;9.93;;;5.93;;
7047;SDS011;3565;53.254;10.352;2023-02-12T02:23:12;11.23;;;6.20;;
7047;SDS011;3565;53.254;10.352;2023-02-12T02:29:01;10.90;;;5.70;;
7047;SDS011;3565;53.254;10.352;2023-02-12T02:31:34;10.93;;;6.50;;
7047;SDS011;3565;53.254;10.352;2023-02-12T02:34:07;11.47;;;6.57;;
7047;SDS011;3565;53.254;10.352;2023-02-12T02:36:40;12.53;;;6.83;;
7047;SDS011;3565;53.254;10.352;2023-02-12T02:39:21;11.33;;;7.10;;
7047;SDS011;3565;53.254;10.352;2023-02-12T02:41:54;12.57;;;6.53;;
7047;SDS011;3565;53.254;10.352;2023-02-12T02:44:26;10.20;;;6.27;;
7047;SDS011;3565;53.254;10.352;2023-02-12T02:46:59;16.03;;;6.50;;
7047;SDS011;3565;53.254;10.352;2023-02-12T02:49:31;11.50;;;5.97;;
7047;SDS011;3565;53.254;10.352;2023-02-12T02:52:04;12.33;;;6.40;;
7047;SDS011;3565;53.254;10.352;2023-02-12T02:54:36;11.90;;;6.17;;
7047;SDS011;3565;53.254;10.352;2023-02-12T02:57:09;9.63;;;5.37;;
7047;SDS011;3565;53.254;10.352;2023-02-12T02:59:41;9.37;;;5.33;;
7047;SDS011;3565;53.254;10.352;2023-02-12T03:02:15;9.43;;;5.03;;
7047;SDS011;3565;53.254;10.352;2023-02-12T03:04:47;10.77;;;6.23;;
7047;SDS011;3565;53.254;10.352;2023-02-12T03:07:19;11.17;;;5.80;;
7047;SDS011;3565;53.254;10.352;2023-02-12T03:09:51;8.70;;;5.43;;
7047;SDS011;3565;53.254;10.352;2023-02-12T03:12:24;11.03;;;5.83;;
7047;SDS011;3565;53.254;10.352;2023-02-12T03:14:57;10.83;;;5.10;;
7047;SDS011;3565;53.254;10.352;2023-02-12T03:17:29;10.77;;;6.30;;
7047;SDS011;3565;53.254;10.352;2023-02-12T03:20:01;11.37;;;6.27;;
7047;SDS011;3565;53.254;10.352;2023-02-12T03:22:35;10.57;;;5.90;;
7047;SDS011;3565;53.254;10.352;2023-02-12T03:25:08;11.27;;;6.00;;
7047;SDS011;3565;53.254;10.352;2023-02-12T03:27:41;12.53;;;6.17;;
7047;SDS011;3565;53.254;10.352;2023-02-12T03:30:14;12.70;;;6.47;;
7047;SDS011;3565;53.254;10.352;2023-02-12T03:32:43;13.63;;;6.50;;
7047;SDS011;3565;53.254;10.352;2023-02-12T03:35:18;14.50;;;6.70;;
7047;SDS011;3565;53.254;10.352;2023-02-12T03:37:51;14.00;;;6.87;;
7047;SDS011;3565;53.254;10.352;2023-02-12T03:40:26;13.57;;;6.47;;
7047;SDS011;3565;53.254;10.352;2023-02-12T03:42:58;13.70;;;6.80;;
7047;SDS011;3565;53.254;10.352;2023-02-12T03:45:34;10.90;;;6.17;;
7047;SDS011;3565;53.254;10.352;2023-02-12T03:48:08;15.10;;;6.93;;
7047;SDS011;3565;53.254;10.352;2023-02-12T03:50:43;12.20;;;6.57;;
7047;SDS011;3565;53.254;10.352;2023-02-12T03:53:13;12.53;;;6.47;;
7047;SDS011;3565;53.254;10.352;2023-02-12T03:55:44;11.87;;;6.27;;
7047;SDS011;3565;53.254;10.352;2023-02-12T03:58:17;11.63;;;5.83;;
7047;SDS011;3565;53.254;10.352;2023-02-12T04:00:48;12.80;;;5.97;;
7047;SDS011;3565;53.254;10.352;2023-02-12T04:03:18;12.67;;;6.50;;
7047;SDS011;3565;53.254;10.352;2023-02-12T04:05:48;15.13;;;7.67;;
7047;SDS011;3565;53.254;10.352;2023-02-12T04:08:17;14.40;;;6.93;;
7047;SDS011;3565;53.254;10.352;2023-02-12T04:10:50;13.50;;;6.23;;
7047;SDS011;3565;53.254;10.352;2023-02-12T04:13:25;13.23;;;6.20;;
7047;SDS011;3565;53.254;10.352;2023-02-12T04:16:02;12.67;;;6.03;;
7047;SDS011;3565;53.254;10.352;2023-02-12T04:18:38;10.87;;;6.03;;
7047;SDS011;3565;53.254;10.352;2023-02-12T04:23:52;11.57;;;5.43;;
7047;SDS011;3565;53.254;10.352;2023-02-12T04:26:25;11.20;;;5.40;;
7047;SDS011;3565;53.254;10.352;2023-02-12T04:28:58;12.57;;;6.30;;
7047;SDS011;3565;53.254;10.352;2023-02-12T04:31:35;9.20;;;5.43;;
7047;SDS011;3565;53.254;10.352;2023-02-12T04:34:07;10.00;;;4.93;;
7047;SDS011;3565;53.254;10.352;2023-02-12T04:36:40;11.37;;;5.33;;
7047;SDS011;3565;53.254;10.352;2023-02-12T04:39:15;11.30;;;5.50;;
7047;SDS011;3565;53.254;10.352;2023-02-12T04:41:46;12.23;;;5.67;;
7047;SDS011;3565;53.254;10.352;2023-02-12T04:44:18;13.27;;;5.87;;
7047;SDS011;3565;53.254;10.352;2023-02-12T04:46:50;13.97;;;5.90;;
7047;SDS011;3565;53.254;10.352;2023-02-12T04:49:20;13.10;;;5.93;;
7047;SDS011;3565;53.254;10.352;2023-02-12T04:51:51;11.63;;;5.90;;
7047;SDS011;3565;53.254;10.352;2023-02-12T04:54:20;14.53;;;5.57;;
7047;SDS011;3565;53.254;10.352;2023-02-12T04:56:50;11.57;;;5.97;;
7047;SDS011;3565;53.254;10.352;2023-02-12T04:59:20;9.87;;;5.40;;
7047;SDS011;3565;53.254;10.352;2023-02-12T05:01:50;11.20;;;5.93;;
7047;SDS011;3565;53.254;10.352;2023-02-12T05:04:19;12.37;;;6.07;;
7047;SDS011;3565;53.254;10.352;2023-02-12T05:06:48;11.67;;;6.37;;
7047;SDS011;3565;53.254;10.352;2023-02-12T05:09:18;14.57;;;6.63;;
7047;SDS011;3565;53.254;10.352;2023-02-12T05:11:47;15.20;;;6.60;;
7047;SDS011;3565;53.254;10.352;2023-02-12T05:14:16;14.17;;;6.13;;
7047;SDS011;3565;53.254;10.352;2023-02-12T05:16:46;13.67;;;6.23;;
7047;SDS011;3565;53.254;10.352;2023-02-12T05:19:15;12.30;;;6.30;;
7047;SDS011;3565;53.254;10.352;2023-02-12T05:21:44;12.57;;;5.97;;
7047;SDS011;3565;53.254;10.352;2023-02-12T05:24:15;13.17;;;5.80;;
7047;SDS011;3565;53.254;10.352;2023-02-12T05:26:44;14.30;;;6.17;;
7047;SDS011;3565;53.254;10.352;2023-02-12T05:29:14;13.93;;;6.10;;
7047;SDS011;3565;53.254;10.352;2023-02-12T05:31:44;15.67;;;6.00;;
7047;SDS011;3565;53.254;10.352;2023-02-12T05:34:13;13.40;;;5.80;;
7047;SDS011;3565;53.254;10.352;2023-02-12T05:36:42;14.27;;;5.60;;
7047;SDS011;3565;53.254;10.352;2023-02-12T05:39:12;12.27;;;5.70;;
7047;SDS011;3565;53.254;10.352;2023-02-12T05:41:42;14.93;;;5.80;;
7047;SDS011;3565;53.254;10.352;2023-02-12T05:44:11;14.93;;;6.30;;
7047;SDS011;3565;53.254;10.352;2023-02-12T05:46:40;13.80;;;6.40;;
7047;SDS011;3565;53.254;10.352;2023-02-12T05:49:10;13.97;;;5.80;;
7047;SDS011;3565;53.254;10.352;2023-02-12T05:51:39;11.93;;;5.70;;
7047;SDS011;3565;53.254;10.352;2023-02-12T05:54:09;10.60;;;5.53;;
7047;SDS011;3565;53.254;10.352;2023-02-12T05:56:41;13.33;;;5.77;;
7047;SDS011;3565;53.254;10.352;2023-02-12T05:59:13;15.33;;;5.70;;
7047;SDS011;3565;53.254;10.352;2023-02-12T06:01:45;11.77;;;5.50;;
7047;SDS011;3565;53.254;10.352;2023-02-12T06:04:17;12.33;;;5.67;;
7047;SDS011;3565;53.254;10.352;2023-02-12T06:06:49;11.03;;;5.50;;
7047;SDS011;3565;53.254;10.352;2023-02-12T06:09:18;10.80;;;5.00;;
7047;SDS011;3565;53.254;10.352;2023-02-12T06:11:48;12.73;;;5.87;;
7047;SDS011;3565;53.254;10.352;2023-02-12T06:14:19;8.43;;;4.93;;
7047;SDS011;3565;53.254;10.352;2023-02-12T06:16:49;9.80;;;4.97;;
7047;SDS011;3565;53.254;10.352;2023-02-12T06:19:19;10.10;;;4.73;;
7047;SDS011;3565;53.254;10.352;2023-02-12T06:21:49;11.30;;;5.13;;
7047;SDS011;3565;53.254;10.352;2023-02-12T06:24:19;9.17;;;4.43;;
7047;SDS011;3565;53.254;10.352;2023-02-12T06:26:49;8.77;;;5.07;;
7047;SDS011;3565;53.254;10.352;2023-02-12T06:29:19;11.00;;;5.37;;
7047;SDS011;3565;53.254;10.352;2023-02-12T06:31:48;9.73;;;5.23;;
7047;SDS011;3565;53.254;10.352;2023-02-12T06:34:18;15.00;;;5.57;;
7047;SDS011;3565;53.254;10.352;2023-02-12T06:36:48;14.43;;;5.83;;
7047;SDS011;3565;53.254;10.352;2023-02-12T06:39:17;14.70;;;6.03;;
7047;SDS011;3565;53.254;10.352;2023-02-12T06:41:47;19.90;;;6.13;;
7047;SDS011;3565;53.254;10.352;2023-02-12T06:44:26;13.83;;;5.90;;
7047;SDS011;3565;53.254;10.352;2023-02-12T06:46:55;22.40;;;6.67;;
7047;SDS011;3565;53.254;10.352;2023-02-12T06:49:24;19.23;;;6.80;;
7047;SDS011;3565;53.254;10.352;2023-02-12T06:52:06;18.40;;;6.67;;
7047;SDS011;3565;53.254;10.352;2023-02-12T06:54:35;19.33;;;7.17;;
7047;SDS011;3565;53.254;10.352;2023-02-12T06:57:04;24.40;;;6.70;;
7047;SDS011;3565;53.254;10.352;2023-02-12T06:59:35;20.97;;;7.03;;
7047;SDS011;3565;53.254;10.352;2023-02-12T07:02:04;18.70;;;7.00;;
7047;SDS011;3565;53.254;10.352;2023-02-12T07:04:33;24.77;;;8.10;;
7047;SDS011;3565;53.254;10.352;2023-02-12T07:07:04;18.50;;;6.90;;
7047;SDS011;3565;53.254;10.352;2023-02-12T07:09:33;18.87;;;6.40;;
7047;SDS011;3565;53.254;10.352;2023-02-12T07:12:03;23.97;;;7.93;;
7047;SDS011;3565;53.254;10.352;2023-02-12T07:14:33;20.07;;;6.93;;
7047;SDS011;3565;53.254;10.352;2023-02-12T07:17:03;24.43;;;7.23;;
7047;SDS011;3565;53.254;10.352;2023-02-12T07:19:35;25.13;;;7.53;;
7047;SDS011;3565;53.254;10.352;2023-02-12T07:22:05;30.23;;;8.40;;
7047;SDS011;3565;53.254;10.352;2023-02-12T07:24:34;24.30;;;7.90;;
7047;SDS011;3565;53.254;10.352;2023-02-12T07:27:05;24.67;;;7.43;;
7047;SDS011;3565;53.254;10.352;2023-02-12T07:29:34;34.53;;;8.73;;
7047;SDS011;3565;53.254;10.352;2023-02-12T07:32:13;29.20;;;7.63;;
7047;SDS011;3565;53.254;10.352;2023-02-12T07:34:42;22.90;;;7.57;;
7047;SDS011;3565;53.254;10.352;2023-02-12T07:37:11;22.90;;;8.23;;
7047;SDS011;3565;53.254;10.352;2023-02-12T07:39:42;36.93;;;8.40;;
7047;SDS011;3565;53.254;10.352;2023-02-12T07:42:11;35.77;;;8.57;;
7047;SDS011;3565;53.254;10.352;2023-02-12T07:44:41;29.80;;;8.33;;
7047;SDS011;3565;53.254;10.352;2023-02-12T07:47:10;29.23;;;8.90;;
7047;SDS011;3565;53.254;10.352;2023-02-12T07:49:40;26.50;;;8.13;;
7047;SDS011;3565;53.254;10.352;2023-02-12T07:52:09;29.40;;;8.87;;
7047;SDS011;3565;53.254;10.352;2023-02-12T07:54:39;30.13;;;9.40;;
7047;SDS011;3565;53.254;10.352;2023-02-12T07:57:08;26.20;;;9.20;;
7047;SDS011;3565;53.254;10.352;2023-02-12T07:59:38;35.20;;;9.17;;
7047;SDS011;3565;53.254;10.352;2023-02-12T08:02:08;26.37;;;9.10;;
7047;SDS011;3565;53.254;10.352;2023-02-12T08:04:38;33.87;;;9.63;;
7047;SDS011;3565;53.254;10.352;2023-02-12T08:07:07;26.17;;;9.77;;
7047;SDS011;3565;53.254;10.352;2023-02-12T08:09:36;31.13;;;9.57;;
7047;SDS011;3565;53.254;10.352;2023-02-12T08:12:06;27.67;;;8.70;;
7047;SDS011;3565;53.254;10.352;2023-02-12T08:14:35;26.90;;;10.43;;
7047;SDS011;3565;53.254;10.352;2023-02-12T08:17:05;26.53;;;10.13;;
7047;SDS011;3565;53.254;10.352;2023-02-12T08:19:35;29.47;;;10.17;;
7047;SDS011;3565;53.254;10.352;2023-02-12T08:22:04;26.33;;;10.20;;
7047;SDS011;3565;53.254;10.352;2023-02-12T08:24:34;25.40;;;9.77;;
7047;SDS011;3565;53.254;10.352;2023-02-12T08:27:04;21.50;;;9.90;;
7047;SDS011;3565;53.254;10.352;2023-02-12T08:29:34;27.57;;;10.37;;
7047;SDS011;3565;53.254;10.352;2023-02-12T08:32:03;29.07;;;10.90;;
7047;SDS011;3565;53.254;10.352;2023-02-12T08:34:34;21.87;;;9.90;;
7047;SDS011;3565;53.254;10.352;2023-02-12T08:37:05;25.40;;;10.40;;
7047;SDS011;3565;53.254;10.352;2023-02-12T08:39:34;23.60;;;10.33;;
7047;SDS011;3565;53.254;10.352;2023-02-12T08:42:04;25.80;;;10.47;;
7047;SDS011;3565;53.254;10.352;2023-02-12T08:44:34;22.33;;;10.87;;
7047;SDS011;3565;53.254;10.352;2023-02-12T08:47:04;26.50;;;10.73;;
7047;SDS011;3565;53.254;10.352;2023-02-12T08:49:35;25.00;;;11.10;;
7047;SDS011;3565;53.254;10.352;2023-02-12T08:52:04;24.20;;;10.97;;
7047;SDS011;3565;53.254;10.352;2023-02-12T08:54:33;26.93;;;11.73;;
7047;SDS011;3565;53.254;10.352;2023-02-12T08:57:03;25.53;;;11.73;;
7047;SDS011;3565;53.254;10.352;2023-02-12T08:59:32;27.97;;;11.40;;
7047;SDS011;3565;53.254;10.352;2023-02-12T09:02:02;27.23;;;12.10;;
7047;SDS011;3565;53.254;10.352;2023-02-12T09:04:32;28.23;;;13.20;;
7047;SDS011;3565;53.254;10.352;2023-02-12T09:07:03;26.47;;;11.60;;
7047;SDS011;3565;53.254;10.352;2023-02-12T09:09:32;24.43;;;11.90;;
7047;SDS011;3565;53.254;10.352;2023-02-12T09:12:02;24.07;;;11.67;;
7047;SDS011;3565;53.254;10.352;2023-02-12T09:14:32;24.57;;;11.80;;
7047;SDS011;3565;53.254;10.352;2023-02-12T09:17:01;27.50;;;11.50;;
7047;SDS011;3565;53.254;10.352;2023-02-12T09:19:31;22.50;;;11.23;;
7047;SDS011;3565;53.254;10.352;2023-02-12T09:22:01;28.23;;;11.73;;
7047;SDS011;3565;53.254;10.352;2023-02-12T09:24:31;24.93;;;11.53;;
7047;SDS011;3565;53.254;10.352;2023-02-12T09:27:00;26.53;;;12.03;;
7047;SDS011;3565;53.254;10.352;2023-02-12T09:29:30;23.07;;;12.03;;
7047;SDS011;3565;53.254;10.352;2023-02-12T09:31:59;21.60;;;11.17;;
7047;SDS011;3565;53.254;10.352;2023-02-12T09:34:30;19.57;;;10.60;;
7047;SDS011;3565;53.254;10.352;2023-02-12T09:37:01;21.47;;;9.97;;
7047;SDS011;3565;53.254;10.352;2023-02-12T09:39:31;19.27;;;10.23;;
7047;SDS011;3565;53.254;10.352;2023-02-12T09:45:02;18.97;;;10.53;;
7047;SDS011;3565;53.254;10.352;2023-02-12T09:47:38;16.97;;;9.80;;
7047;SDS011;3565;53.254;10.352;2023-02-12T09:50:16;17.97;;;10.80;;
7047;SDS011;3565;53.254;10.352;2023-02-12T09:52:57;18.80;;;10.70;;
7047;SDS011;3565;53.254;10.352;2023-02-12T09:55:29;17.40;;;10.30;;
7047;SDS011;3565;53.254;10.352;2023-02-12T09:58:01;20.43;;;11.03;;
7047;SDS011;3565;53.254;10.352;2023-02-12T10:00:32;20.10;;;10.13;;
7047;SDS011;3565;53.254;10.352;2023-02-12T10:03:02;17.83;;;10.10;;
7047;SDS011;3565;53.254;10.352;2023-02-12T10:05:36;17.90;;;10.33;;
7047;SDS011;3565;53.254;10.352;2023-02-12T10:11:12;15.33;;;9.50;;
7047;SDS011;3565;53.254;10.352;2023-02-12T10:13:50;16.27;;;10.03;;
7047;SDS011;3565;53.254;10.352;2023-02-12T10:16:25;16.40;;;9.40;;
7047;SDS011;3565;53.254;10.352;2023-02-12T10:19:00;13.80;;;9.10;;
7047;SDS011;3565;53.254;10.352;2023-02-12T10:21:39;14.70;;;8.97;;
7047;SDS011;3565;53.254;10.352;2023-02-12T10:24:26;14.53;;;8.97;;
7047;SDS011;3565;53.254;10.352;2023-02-12T10:27:22;14.43;;;8.17;;
7047;SDS011;3565;53.254;10.352;2023-02-12T10:30:01;13.50;;;8.80;;
7047;SDS011;3565;53.254;10.352;2023-02-12T10:32:34;16.13;;;9.73;;
7047;SDS011;3565;53.254;10.352;2023-02-12T10:35:12;14.87;;;9.17;;
7047;SDS011;3565;53.254;10.352;2023-02-12T10:37:42;13.67;;;8.60;;
7047;SDS011;3565;53.254;10.352;2023-02-12T10:40:17;11.10;;;7.43;;
7047;SDS011;3565;53.254;10.352;2023-02-12T10:42:49;12.20;;;8.40;;
7047;SDS011;3565;53.254;10.352;2023-02-12T10:45:20;14.27;;;8.90;;
7047;SDS011;3565;53.254;10.352;2023-02-12T10:47:52;11.87;;;8.13;;
7047;SDS011;3565;53.254;10.352;2023-02-12T10:50:24;12.07;;;7.37;;
7047;SDS011;3565;53.254;10.352;2023-02-12T10:52:57;12.37;;;8.10;;
7047;SDS011;3565;53.254;10.352;2023-02-12T10:55:29;10.93;;;7.03;;
7047;SDS011;3565;53.254;10.352;2023-02-12T10:58:00;7.73;;;5.43;;
7047;SDS011;3565;53.254;10.352;2023-02-12T11:00:31;9.40;;;6.87;;
7047;SDS011;3565;53.254;10.352;2023-02-12T11:03:04;11.73;;;6.47;;
7047;SDS011;3565;53.254;10.352;2023-02-12T11:05:38;8.73;;;6.50;;
7047;SDS011;3565;53.254;10.352;2023-02-12T11:08:10;9.07;;;6.30;;
7047;SDS011;3565;53.254;10.352;2023-02-12T11:11:03;8.63;;;6.50;;
7047;SDS011;3565;53.254;10.352;2023-02-12T11:13:36;13.13;;;7.97;;
7047;SDS011;3565;53.254;10.352;2023-02-12T11:16:08;9.77;;;6.93;;
7047;SDS011;3565;53.254;10.352;2023-02-12T11:18:37;9.23;;;6.33;;
7047;SDS011;3565;53.254;10.352;2023-02-12T11:21:08;7.60;;;6.03;;
7047;SDS011;3565;53.254;10.352;2023-02-12T11:23:39;8.10;;;5.97;;
7047;SDS011;3565;53.254;10.352;2023-02-12T11:26:22;8.27;;;5.83;;
7047;SDS011;3565;53.254;10.352;2023-02-12T11:28:54;11.67;;;7.37;;
7047;SDS011;3565;53.254;10.352;2023-02-12T11:31:25;10.00;;;6.53;;
7047;SDS011;3565;53.254;10.352;2023-02-12T11:34:09;8.17;;;5.57;;
7047;SDS011;3565;53.254;10.352;2023-02-12T11:36:43;9.33;;;5.83;;
7047;SDS011;3565;53.254;10.352;2023-02-12T11:39:16;6.97;;;5.00;;
7047;SDS011;3565;53.254;10.352;2023-02-12T11:41:49;6.80;;;4.83;;
7047;SDS011;3565;53.254;10.352;2023-02-12T11:44:21;7.03;;;4.77;;
7047;SDS011;3565;53.254;10.352;2023-02-12T11:46:54;5.50;;;4.10;;
7047;SDS011;3565;53.254;10.352;2023-02-12T11:49:27;4.63;;;3.87;;
7047;SDS011;3565;53.254;10.352;2023-02-12T11:51:59;5.00;;;4.17;;
7047;SDS011;3565;53.254;10.352;2023-02-12T11:54:29;5.30;;;3.97;;
7047;SDS011;3565;53.254;10.352;2023-02-12T11:57:01;5.37;;;3.90;;
7047;SDS011;3565;53.254;10.352;2023-02-12T11:59:32;4.80;;;3.87;;
7047;SDS011;3565;53.254;10.352;2023-02-12T12:02:16;4.03;;;3.20;;
7047;SDS011;3565;53.254;10.352;2023-02-12T12:04:48;4.80;;;3.87;;
7047;SDS011;3565;53.254;10.352;2023-02-12T12:07:20;5.13;;;3.53;;
7047;SDS011;3565;53.254;10.352;2023-02-12T12:09:54;4.57;;;3.00;;
7047;SDS011;3565;53.254;10.352;2023-02-12T12:12:28;4.70;;;3.30;;
7047;SDS011;3565;53.254;10.352;2023-02-12T12:14:59;4.77;;;3.37;;
7047;SDS011;3565;53.254;10.352;2023-02-12T12:17:48;4.13;;;3.10;;
7047;SDS011;3565;53.254;10.352;2023-02-12T12:20:40;5.07;;;3.33;;
7047;SDS011;3565;53.254;10.352;2023-02-12T12:23:12;4.83;;;3.30;;
7047;SDS011;3565;53.254;10.352;2023-02-12T12:25:53;5.07;;;3.83;;
7047;SDS011;3565;53.254;10.352;2023-02-12T12:28:29;4.07;;;3.23;;
7047;SDS011;3565;53.254;10.352;2023-02-12T12:31:02;3.37;;;2.93;;
7047;SDS011;3565;53.254;10.352;2023-02-12T12:33:37;3.63;;;3.33;;
7047;SDS011;3565;53.254;10.352;2023-02-12T12:36:19;4.47;;;3.30;;
7047;SDS011;3565;53.254;10.352;2023-02-12T12:39:09;4.33;;;3.43;;
7047;SDS011;3565;53.254;10.352;2023-02-12T12:41:44;3.90;;;3.23;;
7047;SDS011;3565;53.254;10.352;2023-02-12T12:44:32;4.87;;;3.27;;
7047;SDS011;3565;53.254;10.352;2023-02-12T12:47:05;4.80;;;3.67;;
7047;SDS011;3565;53.254;10.352;2023-02-12T12:49:46;4.73;;;3.70;;
7047;SDS011;3565;53.254;10.352;2023-02-12T12:52:28;5.23;;;3.23;;
7047;SDS011;3565;53.254;10.352;2023-02-12T12:55:20;5.00;;;4.00;;
7047;SDS011;3565;53.254;10.352;2023-02-12T12:58:06;6.80;;;3.90;;
7047;SDS011;3565;53.254;10.352;2023-02-12T13:00:42;4.63;;;3.90;;
7047;SDS011;3565;53.254;10.352;2023-02-12T13:06:29;7.70;;;4.97;;
7047;SDS011;3565;53.254;10.352;2023-02-12T13:12:28;4.27;;;3.87;;
7047;SDS011;3565;53.254;10.352;2023-02-12T13:15:04;5.93;;;3.73;;
7047;SDS011;3565;53.254;10.352;2023-02-12T13:17:38;5.13;;;3.90;;
7047;SDS011;3565;53.254;10.352;2023-02-12T13:20:16;4.50;;;3.93;;
7047;SDS011;3565;53.254;10.352;2023-02-12T13:22:50;5.93;;;4.73;;
7047;SDS011;3565;53.254;10.352;2023-02-12T13:25:22;4.77;;;4.10;;
7047;SDS011;3565;53.254;10.352;2023-02-12T13:27:54;5.73;;;4.97;;
7047;SDS011;3565;53.254;10.352;2023-02-12T13:30:25;5.60;;;4.60;;
7047;SDS011;3565;53.254;10.352;2023-02-12T13:33:00;5.80;;;4.67;;
7047;SDS011;3565;53.254;10.352;2023-02-12T13:35:42;5.73;;;4.80;;
7047;SDS011;3565;53.254;10.352;2023-02-12T13:38:14;5.13;;;4.53;;
7047;SDS011;3565;53.254;10.352;2023-02-12T13:40:46;5.80;;;4.60;;
7047;SDS011;3565;53.254;10.352;2023-02-12T13:43:22;5.93;;;4.97;;
7047;SDS011;3565;53.254;10.352;2023-02-12T13:45:57;5.43;;;4.67;;
7047;SDS011;3565;53.254;10.352;2023-02-12T13:48:46;6.27;;;5.03;;
7047;SDS011;3565;53.254;10.352;2023-02-12T13:51:20;5.60;;;5.00;;
7047;SDS011;3565;53.254;10.352;2023-02-12T13:53:57;5.77;;;4.87;;
7047;SDS011;3565;53.254;10.352;2023-02-12T13:56:39;5.80;;;4.60;;
7047;SDS011;3565;53.254;10.352;2023-02-12T14:05:23;7.37;;;6.27;;
7047;SDS011;3565;53.254;10.352;2023-02-12T14:08:01;8.17;;;6.43;;
7047;SDS011;3565;53.254;10.352;2023-02-12T14:10:42;9.63;;;6.97;;
7047;SDS011;3565;53.254;10.352;2023-02-12T14:15:39;8.47;;;5.57;;
7047;SDS011;3565;53.254;10.352;2023-02-12T14:18:30;7.23;;;5.53;;
7047;SDS011;3565;53.254;10.352;2023-02-12T14:35:45;7.73;;;5.40;;
7047;SDS011;3565;53.254;10.352;2023-02-12T14:41:24;8.23;;;6.13;;
7047;SDS011;3565;53.254;10.352;2023-02-12T14:50:18;9.30;;;6.53;;
7047;SDS011;3565;53.254;10.352;2023-02-12T14:52:52;8.83;;;6.40;;
7047;SDS011;3565;53.254;10.352;2023-02-12T14:55:27;8.93;;;6.23;;
7047;SDS011;3565;53.254;10.352;2023-02-12T14:58:00;9.37;;;6.33;;
7047;SDS011;3565;53.254;10.352;2023-02-12T15:00:35;7.67;;;5.80;;
7047;SDS011;3565;53.254;10.352;2023-02-12T15:03:15;9.03;;;6.40;;
7047;SDS011;3565;53.254;10.352;2023-02-12T15:05:49;8.40;;;6.27;;
7047;SDS011;3565;53.254;10.352;2023-02-12T15:08:30;8.67;;;6.50;;
7047;SDS011;3565;53.254;10.352;2023-02-12T15:11:04;8.07;;;6.10;;
7047;SDS011;3565;53.254;10.352;2023-02-12T15:13:47;9.87;;;6.63;;
7047;SDS011;3565;53.254;10.352;2023-02-12T15:16:22;8.93;;;6.53;;
7047;SDS011;3565;53.254;10.352;2023-02-12T15:18:58;9.57;;;6.87;;
7047;SDS011;3565;53.254;10.352;2023-02-12T15:21:30;9.07;;;6.50;;
7047;SDS011;3565;53.254;10.352;2023-02-12T15:24:01;8.70;;;5.77;;
7047;SDS011;3565;53.254;10.352;2023-02-12T15:26:33;8.50;;;5.80;;
7047;SDS011;3565;53.254;10.352;2023-02-12T15:29:05;9.70;;;6.03;;
7047;SDS011;3565;53.254;10.352;2023-02-12T15:31:43;7.70;;;5.37;;
7047;SDS011;3565;53.254;10.352;2023-02-12T15:34:19;8.00;;;5.20;;
7047;SDS011;3565;53.254;10.352;2023-02-12T15:36:50;8.13;;;5.43;;
7047;SDS011;3565;53.254;10.352;2023-02-12T15:39:21;6.80;;;4.67;;
7047;SDS011;3565;53.254;10.352;2023-02-12T15:41:52;6.43;;;4.60;;
7047;SDS011;3565;53.254;10.352;2023-02-12T15:44:25;6.30;;;4.70;;
7047;SDS011;3565;53.254;10.352;2023-02-12T15:46:58;6.20;;;4.73;;
7047;SDS011;3565;53.254;10.352;2023-02-12T15:49:34;6.30;;;4.87;;
7047;SDS011;3565;53.254;10.352;2023-02-12T15:52:05;7.90;;;5.90;;
7047;SDS011;3565;53.254;10.352;2023-02-12T15:54:36;7.27;;;6.00;;
7047;SDS011;3565;53.254;10.352;2023-02-12T15:57:09;5.90;;;4.80;;
7047;SDS011;3565;53.254;10.352;2023-02-12T15:59:40;6.77;;;4.33;;
7047;SDS011;3565;53.254;10.352;2023-02-12T16:02:17;6.47;;;4.73;;
7047;SDS011;3565;53.254;10.352;2023-02-12T16:04:48;4.73;;;3.87;;
7047;SDS011;3565;53.254;10.352;2023-02-12T16:07:18;6.90;;;3.77;;
7047;SDS011;3565;53.254;10.352;2023-02-12T16:12:14;4.70;;;3.40;;
7047;SDS011;3565;53.254;10.352;2023-02-12T16:14:46;4.07;;;3.67;;
7047;SDS011;3565;53.254;10.352;2023-02-12T16:17:21;4.10;;;3.67;;